Time;durP1;ratioP1;P1;durP2;ratioP2;P2;SDS_P1;SDS_P2;PMS_P1;PMS_P2;Temp;Humidity;BMP_temperature;BMP_pressure;BME280_temperature;BME280_humidity;BME280_pressure;Samples;Min_cycle;Max_cycle;Signal;HPM_P1;HPM_P2
2022/05/19 00:03:40;;;;;;;19.60;16.98;;;;;;;15.82;93.13;101557.94;10507340;27;20039;-74
2022/05/19 00:08:41;;;;;;;15.40;13.30;;;;;;;15.76;93.59;101552.44;10528877;27;20078;-75
2022/05/19 00:13:41;;;;;;;23.42;17.65;;;;;;;15.65;93.65;101551.13;10509889;27;20032;-74
2022/05/19 00:18:42;;;;;;;19.48;15.45;;;;;;;15.70;94.13;101552.22;10527325;27;20514;-74
2022/05/19 00:23:42;;;;;;;16.50;13.48;;;;;;;15.56;93.77;101549.06;10521758;27;20119;-75
2022/05/19 00:28:43;;;;;;;19.13;12.18;;;;;;;15.42;93.29;101535.34;10561259;27;20024;-75
2022/05/19 00:33:44;;;;;;;15.80;12.10;;;;;;;15.37;94.37;101539.53;10560239;27;20051;-74
2022/05/19 00:38:44;;;;;;;15.18;12.07;;;;;;;15.26;94.17;101547.94;10490570;28;20040;-74
2022/05/19 00:43:54;;;;;;;19.85;13.40;;;;;;;15.11;94.12;101550.88;10525638;27;20172;-75
2022/05/19 00:49:02;;;;;;;14.88;11.85;;;;;;;15.05;94.73;101529.53;10526129;27;20040;-75
2022/05/19 00:54:04;;;;;;;23.52;16.90;;;;;;;15.04;94.77;101529.47;10526110;27;20081;-74
2022/05/19 00:59:11;;;;;;;23.98;17.35;;;;;;;14.94;95.11;101526.47;10509719;27;20040;-74
2022/05/19 01:04:30;;;;;;;20.48;16.17;;;;;;;14.88;95.33;101522.69;10484836;28;20365;-74
2022/05/19 01:09:34;;;;;;;22.60;18.63;;;;;;;14.75;95.44;101522.19;10499534;28;20075;-74
2022/05/19 01:14:35;;;;;;;30.02;18.90;;;;;;;14.68;95.68;101526.25;10520993;27;20568;-74
2022/05/19 01:19:57;;;;;;;20.73;17.50;;;;;;;14.64;96.54;101524.34;10526927;27;20036;-75
2022/05/19 01:25:10;;;;;;;24.88;16.52;;;;;;;14.59;97.11;101517.97;10521017;27;20111;-74
2022/05/19 01:30:11;;;;;;;24.20;17.08;;;;;;;14.56;97.00;101509.94;10510373;27;20028;-74
2022/05/19 01:35:11;;;;;;;21.30;18.38;;;;;;;14.47;97.60;101499.94;10523924;27;20135;-74
2022/05/19 01:40:14;;;;;;;22.75;17.00;;;;;;;14.42;97.66;101503.19;10525863;27;20039;-74
2022/05/19 01:45:36;;;;;;;21.27;16.52;;;;;;;14.41;97.87;101491.78;10488815;28;20049;-74
2022/05/19 01:51:14;;;;;;;20.55;16.45;;;;;;;14.45;98.19;101477.00;10500417;28;20036;-74
2022/05/19 01:56:46;;;;;;;22.23;16.23;;;;;;;14.37;98.35;101485.47;10483115;28;20380;-74
2022/05/19 02:01:55;;;;;;;21.48;18.85;;;;;;;14.32;98.30;101484.38;10486491;27;20059;-74
2022/05/19 02:07:01;;;;;;;18.70;14.63;;;;;;;14.26;98.35;101475.34;10565859;27;20035;-74
2022/05/19 02:12:01;;;;;;;18.77;15.05;;;;;;;14.23;98.81;101489.25;10533071;27;20039;-74
2022/05/19 02:17:05;;;;;;;20.48;15.15;;;;;;;14.24;99.04;101483.16;10515726;27;20054;-74
2022/05/19 02:22:06;;;;;;;21.38;16.10;;;;;;;14.28;99.45;101486.84;10532449;27;20032;-75
2022/05/19 02:27:31;;;;;;;16.30;14.07;;;;;;;14.26;99.20;101480.59;10514330;27;20032;-74
2022/05/19 02:32:31;;;;;;;18.27;13.23;;;;;;;14.19;99.16;101482.97;10529708;27;20085;-73
2022/05/19 02:37:32;;;;;;;18.70;14.27;;;;;;;14.14;99.15;101483.59;10533401;27;20166;-74
2022/05/19 02:42:32;;;;;;;19.38;13.82;;;;;;;14.07;98.90;101479.81;10527685;27;20134;-74
2022/05/19 02:47:33;;;;;;;16.65;14.43;;;;;;;13.99;98.76;101479.47;10531499;27;20478;-74
2022/05/19 02:52:33;;;;;;;15.68;14.10;;;;;;;13.95;99.42;101480.16;10514251;27;20036;-73
2022/05/19 02:57:34;;;;;;;16.77;14.32;;;;;;;13.92;99.72;101472.16;10530730;27;20036;-74
2022/05/19 03:02:34;;;;;;;16.17;12.32;;;;;;;13.91;99.29;101480.88;10529893;27;20040;-74
2022/05/19 03:07:35;;;;;;;15.93;12.73;;;;;;;13.90;99.64;101472.09;10530925;27;20089;-74
2022/05/19 03:12:35;;;;;;;15.52;13.55;;;;;;;13.92;99.78;101477.41;10530358;27;20040;-74
2022/05/19 03:17:36;;;;;;;13.48;10.10;;;;;;;13.92;99.76;101478.31;10528855;27;20036;-74
2022/05/19 03:22:37;;;;;;;14.73;11.82;;;;;;;13.94;99.73;101474.03;10530230;27;20133;-73
2022/05/19 03:27:37;;;;;;;13.75;10.65;;;;;;;13.97;99.42;101477.63;10529042;27;20480;-73
2022/05/19 03:32:38;;;;;;;15.73;10.57;;;;;;;13.91;99.51;101483.50;10529968;27;20051;-74
2022/05/19 03:37:39;;;;;;;12.90;10.02;;;;;;;13.92;99.45;101485.31;10529989;27;20111;-73
2022/05/19 03:42:39;;;;;;;22.63;10.55;;;;;;;13.92;99.18;101487.94;10511645;27;20090;-74
2022/05/19 03:47:40;;;;;;;17.17;9.07;;;;;;;13.90;98.89;101485.25;10512261;27;20559;-74
2022/05/19 03:52:40;;;;;;;10.88;8.38;;;;;;;13.93;99.21;101508.16;10528026;27;20036;-75
2022/05/19 03:57:42;;;;;;;14.88;9.50;;;;;;;14.03;98.98;101522.63;10510999;27;20039;-74
2022/05/19 04:02:42;;;;;;;13.60;9.52;;;;;;;14.43;95.55;101627.06;10529721;27;20036;-75
2022/05/19 04:07:43;;;;;;;18.02;9.93;;;;;;;15.48;88.02;101590.97;10526036;27;20127;-74
2022/05/19 04:12:43;;;;;;;12.07;8.13;;;;;;;16.12;83.54;101633.88;10526189;27;20036;-74
2022/05/19 04:17:44;;;;;;;12.70;7.85;;;;;;;16.53;82.07;101656.47;10527116;27;20126;-74
2022/05/19 04:22:44;;;;;;;11.18;7.28;;;;;;;16.65;82.29;101622.53;10519587;27;20392;-73
2022/05/19 04:27:45;;;;;;;9.57;6.38;;;;;;;16.62;82.52;101614.50;10525342;27;20054;-75
2022/05/19 04:32:46;;;;;;;8.13;5.32;;;;;;;16.50;83.46;101612.34;10527099;27;20055;-74
2022/05/19 04:37:47;;;;;;;8.10;5.32;;;;;;;16.52;83.08;101594.81;10525114;27;20453;-74
2022/05/19 04:42:48;;;;;;;9.98;6.45;;;;;;;16.54;83.36;101600.13;10525358;27;20373;-74
2022/05/19 04:47:48;;;;;;;8.43;5.78;;;;;;;16.69;83.75;101607.72;10525137;27;20036;-74
2022/05/19 04:52:49;;;;;;;7.85;5.63;;;;;;;16.82;82.90;101609.91;10525635;27;20474;-74
2022/05/19 04:57:49;;;;;;;9.82;5.95;;;;;;;17.03;83.25;101620.34;10523809;27;20064;-74
2022/05/19 05:02:50;;;;;;;8.45;5.70;;;;;;;17.29;83.09;101619.41;10509053;27;20064;-74
2022/05/19 05:07:50;;;;;;;10.32;5.47;;;;;;;17.61;82.43;101609.81;10526570;27;20067;-74
2022/05/19 05:12:51;;;;;;;13.27;7.22;;;;;;;17.72;81.11;101622.47;10525708;27;20438;-74
2022/05/19 05:17:53;;;;;;;7.10;6.28;;;;;;;18.12;81.45;101612.19;10526843;27;20102;-74
2022/05/19 05:22:53;;;;;;;8.65;5.15;;;;;;;18.53;80.83;101614.19;10525582;27;20040;-74
2022/05/19 05:27:54;;;;;;;7.65;5.60;;;;;;;18.96;79.22;101617.94;10525446;27;20138;-73
2022/05/19 05:32:54;;;;;;;12.05;8.23;;;;;;;19.44;78.03;101618.22;10524908;27;20075;-74
2022/05/19 05:37:54;;;;;;;13.77;9.02;;;;;;;20.42;76.30;101618.50;10524895;27;20439;-75
2022/05/19 05:42:55;;;;;;;14.80;8.80;;;;;;;21.76;72.29;101608.28;10525015;27;20124;-74
2022/05/19 05:47:55;;;;;;;14.97;9.20;;;;;;;23.31;63.03;101601.84;10523065;27;20048;-73
2022/05/19 05:52:56;;;;;;;16.03;12.43;;;;;;;23.68;56.81;101590.44;10523609;27;20067;-73
2022/05/19 05:57:56;;;;;;;11.87;8.33;;;;;;;23.34;56.70;101594.72;10507833;27;20442;-73
2022/05/19 06:02:57;;;;;;;13.50;7.77;;;;;;;23.40;57.98;101574.28;10524163;27;20028;-73
2022/05/19 06:07:57;;;;;;;15.53;10.10;;;;;;;23.17;57.28;101582.13;10524482;27;20035;-73
2022/05/19 06:12:58;;;;;;;10.80;9.57;;;;;;;22.41;59.59;101577.03;10539439;27;20120;-73
2022/05/19 06:17:58;;;;;;;10.13;7.63;;;;;;;21.87;62.81;101575.56;10526041;27;20101;-74
2022/05/19 06:22:59;;;;;;;13.27;9.70;;;;;;;21.29;63.66;101568.56;10523789;27;20056;-73
2022/05/19 06:28:00;;;;;;;30.63;9.03;;;;;;;21.20;65.99;101566.63;10520014;27;20436;-73
2022/05/19 06:33:00;;;;;;;14.57;10.23;;;;;;;21.42;63.67;101551.88;10507379;28;20043;-73
2022/05/19 06:38:01;;;;;;;25.07;11.03;;;;;;;21.10;67.31;101571.81;10526320;27;20032;-73
2022/05/19 06:43:05;;;;;;;18.30;12.30;;;;;;;21.29;66.54;101564.09;10533068;27;20122;-73
2022/05/19 06:48:06;;;;;;;11.52;7.63;;;;;;;22.80;59.12;101545.38;10531704;27;20476;-73
2022/05/19 06:53:07;;;;;;;11.87;8.40;;;;;;;23.98;57.15;101555.84;10533572;27;20032;-73
2022/05/19 06:58:07;;;;;;;8.80;7.13;;;;;;;26.09;50.35;101552.91;10534946;27;20043;-73
2022/05/19 07:03:08;;;;;;;10.10;6.27;;;;;;;28.38;43.95;101549.59;10535152;27;20067;-73
2022/05/19 07:08:09;;;;;;;13.13;5.82;;;;;;;29.77;40.71;101526.34;10531103;27;20036;-73
2022/05/19 07:13:09;;;;;;;;;;;;;;;29.57;42.04;101508.81;10531153;27;20071;-73
2022/05/19 07:18:10;;;;;;;12.10;5.40;;;;;;;28.94;41.30;101502.88;10531480;27;19927;-73
2022/05/19 07:23:11;;;;;;;;;;;;;;;28.26;44.74;101485.19;10526374;27;20055;-73
2022/05/19 07:28:12;;;;;;;8.90;5.23;;;;;;;26.29;46.01;101480.34;10553344;27;19932;-74
2022/05/19 07:33:14;;;;;;;8.63;4.47;;;;;;;25.46;49.58;101481.75;10511133;28;20040;-73
2022/05/19 07:38:15;;;;;;;8.40;3.88;;;;;;;27.31;46.19;101480.22;10527108;27;20358;-74
2022/05/19 07:48:35;;;;;;;10.25;5.35;;;;;;;30.40;38.22;101461.91;10510724;27;20274;-74
2022/05/19 07:53:36;;;;;;;10.73;5.10;;;;;;;30.50;38.09;101462.56;10527349;27;20110;-74
2022/05/19 07:58:36;;;;;;;;;;;;;;;29.42;39.61;101460.59;10535621;27;20036;-72
2022/05/19 08:03:37;;;;;;;8.83;5.03;;;;;;;30.48;38.88;101415.81;10532110;27;19924;-72
2022/05/19 08:08:38;;;;;;;;;;;;;;;31.07;35.97;101414.16;10530201;27;20036;-72
2022/05/19 08:18:58;;;;;;;6.15;4.68;;;;;;;29.57;38.92;101430.59;10528457;28;20028;-72
2022/05/19 08:23:58;;;;;;;;;;;;;;;29.31;38.55;101434.75;10543394;27;20122;-72
2022/05/19 08:28:59;;;;;;;7.53;4.83;;;;;;;29.83;39.12;101430.94;10529873;27;19924;-72
2022/05/19 08:34:03;;;;;;;;;;;;;;;31.27;36.79;101456.84;10529158;28;20131;-73
2022/05/19 08:39:04;;;;;;;9.38;3.70;;;;;;;31.87;36.31;101464.06;10529380;28;20419;-74
2022/05/19 08:44:45;;;;;;;17.55;8.90;;;;;;;31.82;33.85;101457.91;10522419;27;20043;-74
2022/05/19 08:49:50;;;;;;;12.48;5.32;;;;;;;33.13;31.77;101457.91;10515857;27;20408;-74
2022/05/19 08:54:52;;;;;;;14.25;5.43;;;;;;;33.28;30.76;101452.84;10538139;27;20047;-74
2022/05/19 09:00:17;;;;;;;10.68;4.30;;;;;;;33.26;30.55;101441.16;10509850;27;20118;-75
2022/05/19 09:05:30;;;;;;;12.00;4.60;;;;;;;32.97;31.92;101433.19;10518592;28;20039;-76
2022/05/19 09:10:49;;;;;;;10.98;4.68;;;;;;;33.75;32.38;101419.34;10526216;28;20040;-75
2022/05/19 09:15:50;;;;;;;6.85;4.40;;;;;;;33.63;29.62;101418.88;10520419;27;20500;-74
2022/05/19 09:20:52;;;;;;;8.95;3.58;;;;;;;33.56;29.85;101417.38;10517418;27;20035;-72
2022/05/19 09:25:57;;;;;;;6.28;3.70;;;;;;;34.28;29.70;101414.44;10547031;27;20555;-73
2022/05/19 09:30:59;;;;;;;7.35;4.10;;;;;;;35.62;27.82;101409.25;10508610;27;20558;-74
2022/05/19 09:36:00;;;;;;;8.02;3.45;;;;;;;35.64;28.09;101410.91;10526370;27;20403;-76
2022/05/19 09:41:03;;;;;;;8.07;3.45;;;;;;;34.86;28.92;101408.25;10507684;27;20032;-75
2022/05/19 09:46:17;;;;;;;5.50;3.88;;;;;;;34.33;31.23;101409.66;10508218;27;20028;-74
2022/05/19 09:51:19;;;;;;;6.25;3.50;;;;;;;34.80;28.61;101406.66;10509950;27;20115;-74
2022/05/19 09:56:21;;;;;;;7.55;3.92;;;;;;;35.42;28.03;101384.72;10508368;27;20024;-74
2022/05/19 10:01:28;;;;;;;10.60;4.55;;;;;;;36.10;26.62;101387.78;10529349;27;20055;-74
2022/05/19 10:06:48;;;;;;;9.18;5.20;;;;;;;36.82;27.36;101380.31;10537333;27;20123;-74
2022/05/19 10:11:54;;;;;;;7.07;4.18;;;;;;;37.04;27.26;101381.88;10523218;27;20047;-73
2022/05/19 10:17:33;;;;;;;6.95;4.97;;;;;;;36.86;25.25;101368.25;10514030;27;20040;-74
2022/05/19 10:22:40;;;;;;;6.93;3.53;;;;;;;36.90;27.46;101366.25;10473719;27;20036;-73
2022/05/19 10:33:28;;;;;;;7.50;3.63;;;;;;;37.12;24.79;101335.06;10534742;27;20036;-75
2022/05/19 10:39:02;;;;;;;9.77;3.45;;;;;;;34.62;28.63;101334.16;10525519;27;20101;-73
2022/05/19 10:44:25;;;;;;;7.30;3.80;;;;;;;33.55;28.91;101325.22;10534007;27;20083;-73
2022/05/19 10:49:49;;;;;;;5.65;3.30;;;;;;;33.04;31.08;101320.00;10552721;27;20530;-74
2022/05/19 10:54:50;;;;;;;7.75;4.32;;;;;;;31.72;33.09;101322.00;10540071;27;20063;-73
2022/05/19 11:00:03;;;;;;;;;;;;;;;31.61;32.87;101328.66;10534151;27;20055;-72
2022/05/19 11:05:22;;;;;;;7.78;3.70;;;;;;;32.45;32.14;101331.22;10530526;27;19959;-73
2022/05/19 11:10:44;;;;;;;10.82;4.45;;;;;;;32.48;33.62;101335.66;10532042;27;20048;-73
2022/05/19 11:16:26;;;;;;;4.82;3.28;;;;;;;32.11;33.53;101326.13;10516360;27;20052;-73
2022/05/19 11:21:26;;;;;;;6.57;4.00;;;;;;;32.86;33.95;101310.75;10401759;28;20152;-73
2022/05/19 11:26:38;;;;;;;7.50;3.58;;;;;;;33.86;31.75;101318.47;10490329;27;20377;-73
2022/05/19 11:31:41;;;;;;;6.18;3.78;;;;;;;33.92;33.03;101300.06;10541581;27;20078;-75
2022/05/19 11:36:49;;;;;;;8.65;3.78;;;;;;;34.01;30.70;101306.97;10528872;27;20437;-74
2022/05/19 11:41:50;;;;;;;6.78;4.43;;;;;;;33.73;33.28;101318.09;10513575;27;20086;-75
2022/05/19 11:55:12;;;;;;;9.50;4.38;;;;;;;33.12;32.77;101301.59;10512142;27;20046;-74
2022/05/19 11:58:20;;;;;;;10.10;4.55;;;;;;;31.87;34.99;101271.94;10518438;27;20044;-75
2022/05/19 12:03:28;;;;;;;16.95;12.45;;;;;;;31.33;35.49;101285.44;10546685;27;20035;-74
2022/05/19 12:08:51;;;;;;;8.52;5.25;;;;;;;29.95;38.65;101405.44;10529040;27;20065;-77
2022/05/19 12:14:13;;;;;;;47.38;8.35;;;;;;;25.36;42.09;101460.34;10536466;27;20120;-74
2022/05/19 12:19:34;;;;;;;34.78;6.93;;;;;;;22.04;52.31;101525.09;10527442;27;25169;-73
2022/05/19 12:24:42;;;;;;;15.40;3.38;;;;;;;19.18;65.90;101557.47;10556083;27;20031;-75
2022/05/19 12:31:56;;;;;;;13.18;3.83;;;;;;;17.24;78.96;101608.66;10571485;27;20360;-75
2022/05/19 12:35:23;;;;;;;14.52;3.90;;;;;;;16.42;85.04;101649.06;10556324;27;20052;-75
2022/05/19 12:40:49;;;;;;;14.38;3.47;;;;;;;16.30;88.54;101643.31;10526075;27;20115;-75
2022/05/19 12:45:55;;;;;;;5.82;2.20;;;;;;;16.24;89.67;101673.06;10517279;27;20035;-76
2022/05/19 12:51:14;;;;;;;10.00;2.25;;;;;;;16.22;91.07;101682.69;10551209;27;20032;-75
2022/05/19 12:56:49;;;;;;;8.20;1.73;;;;;;;16.35;91.44;101675.22;10522765;27;20085;-77
2022/05/19 13:01:51;;;;;;;6.55;2.00;;;;;;;16.40;91.53;101692.13;10536054;27;20054;-77
2022/05/19 13:06:55;;;;;;;7.15;1.70;;;;;;;16.71;90.92;101677.38;10511206;27;20047;-77
2022/05/19 13:11:58;;;;;;;7.28;2.63;;;;;;;17.40;89.07;101635.59;10550259;27;20560;-76
2022/05/19 13:16:58;;;;;;;7.90;2.88;;;;;;;19.20;85.85;101603.50;10502462;27;20047;-76
2022/05/19 13:22:08;;;;;;;5.30;2.25;;;;;;;22.23;74.80;101585.72;10525000;27;20043;-75
2022/05/19 13:32:34;;;;;;;4.10;1.65;;;;;;;22.50;66.27;101556.72;10524938;27;20028;-75
2022/05/19 13:37:39;;;;;;;5.75;2.75;;;;;;;21.63;71.25;101655.16;10525681;27;20040;-76
2022/05/19 13:42:43;;;;;;;4.75;2.75;;;;;;;21.11;74.07;101653.44;10525240;27;20036;-76
2022/05/19 13:47:43;;;;;;;4.97;2.45;;;;;;;20.87;73.12;101623.78;10524287;27;20051;-75
2022/05/19 13:52:45;;;;;;;7.25;3.67;;;;;;;20.72;75.15;101643.00;10501270;27;20497;-75
2022/05/19 13:57:49;;;;;;;4.35;2.78;;;;;;;20.53;74.02;101622.25;10528049;27;20059;-76
2022/05/19 14:02:49;;;;;;;5.75;4.10;;;;;;;20.46;76.32;101633.66;10507942;27;20044;-75
2022/05/19 14:07:50;;;;;;;4.20;3.47;;;;;;;20.48;74.14;101612.44;10523286;27;20063;-76
2022/05/19 14:12:55;;;;;;;7.25;3.45;;;;;;;20.41;75.40;101595.44;10506746;27;20122;-76
2022/05/19 14:17:58;;;;;;;5.38;3.90;;;;;;;20.23;75.47;101561.47;10556939;27;20077;-75
2022/05/19 14:22:59;;;;;;;15.70;5.10;;;;;;;20.09;77.10;101574.47;10507681;27;20438;-75
2022/05/19 14:28:03;;;;;;;7.32;5.53;;;;;;;20.07;76.50;101573.56;10523270;27;20085;-75
2022/05/19 14:33:06;;;;;;;6.80;5.05;;;;;;;20.33;77.28;101591.75;10505468;27;20421;-75
2022/05/19 14:38:19;;;;;;;6.43;5.63;;;;;;;20.28;77.42;101623.59;10507621;27;20040;-76
2022/05/19 14:43:26;;;;;;;12.13;6.18;;;;;;;20.24;76.83;101635.00;10505563;27;20425;-75
2022/05/19 14:48:33;;;;;;;16.63;11.68;;;;;;;20.48;76.92;101645.22;10539672;27;20437;-75
2022/05/19 14:53:35;;;;;;;7.78;6.43;;;;;;;20.62;75.50;101684.47;10507063;27;20364;-74
2022/05/19 14:58:39;;;;;;;8.60;4.82;;;;;;;21.12;75.03;101697.81;10522563;27;20382;-74
2022/05/19 15:03:41;;;;;;;9.80;4.88;;;;;;;21.51;73.52;101702.88;10489915;27;20039;-74
2022/05/19 15:08:44;;;;;;;8.52;5.22;;;;;;;22.51;66.00;101702.50;10500026;27;20043;-75
2022/05/19 15:13:44;;;;;;;6.53;4.03;;;;;;;22.79;64.72;101709.03;10489971;28;20085;-76
2022/05/19 15:18:45;;;;;;;6.40;4.47;;;;;;;23.07;64.81;101724.44;10529590;28;20556;-76
2022/05/19 15:23:45;;;;;;;6.93;4.73;;;;;;;22.93;65.66;101733.19;10527860;28;20132;-75
2022/05/19 15:28:46;;;;;;;7.70;4.70;;;;;;;22.54;66.66;101735.44;10511218;28;20119;-75
2022/05/19 15:33:46;;;;;;;5.67;4.63;;;;;;;22.31;69.28;101737.81;10492023;27;20054;-75
2022/05/19 15:38:47;;;;;;;6.47;4.20;;;;;;;22.24;67.96;101736.81;10510404;27;20131;-75
2022/05/19 15:43:48;;;;;;;8.57;4.37;;;;;;;22.11;68.68;101735.78;10527310;28;20533;-76
2022/05/19 15:48:49;;;;;;;9.27;4.93;;;;;;;21.66;70.87;101747.53;10530667;28;20030;-75
2022/05/19 15:53:49;;;;;;;8.05;5.50;;;;;;;21.74;67.69;101737.00;10527308;28;20498;-77
2022/05/19 15:58:50;;;;;;;10.73;5.50;;;;;;;22.09;68.85;101734.84;10509701;28;20436;-77
2022/05/19 16:03:50;;;;;;;21.93;8.37;;;;;;;22.09;69.36;101739.28;10528843;28;20523;-76
2022/05/19 16:08:51;;;;;;;46.17;17.70;;;;;;;21.87;70.18;101736.31;10526930;28;20064;-76
2022/05/19 16:13:51;;;;;;;8.57;5.97;;;;;;;21.52;70.39;101736.63;10508564;28;20059;-75
2022/05/19 16:18:53;;;;;;;10.03;6.60;;;;;;;21.46;70.76;101734.78;10527433;28;20059;-75
2022/05/19 16:23:53;;;;;;;8.83;6.23;;;;;;;21.24;73.07;101730.84;10524309;27;20048;-77
2022/05/19 16:28:54;;;;;;;7.13;5.17;;;;;;;21.32;73.79;101729.22;10507265;27;20043;-78
2022/05/19 16:33:55;;;;;;;8.90;7.00;;;;;;;21.33;74.53;101727.47;10526888;27;20119;-76
2022/05/19 16:38:57;;;;;;;7.90;6.00;;;;;;;21.36;74.07;101716.84;10523123;27;20089;-76
2022/05/19 16:43:57;;;;;;;11.98;7.30;;;;;;;21.21;72.99;101714.81;10527245;27;20051;-76
2022/05/19 16:49:00;;;;;;;9.40;5.07;;;;;;;21.03;71.36;101729.59;10524381;27;20115;-76
2022/05/19 16:59:19;;;;;;;8.43;6.63;;;;;;;20.68;68.47;101735.13;10523642;27;20036;-75
2022/05/19 17:04:20;;;;;;;11.70;5.93;;;;;;;20.64;68.46;101739.50;10563012;27;20063;-76
2022/05/19 17:09:20;;;;;;;7.10;4.93;;;;;;;20.75;70.63;101739.69;10565030;27;20472;-76
2022/05/19 17:14:21;;;;;;;6.57;5.20;;;;;;;20.92;68.06;101741.81;10567128;27;20042;-74
2022/05/19 17:19:22;;;;;;;9.48;5.05;;;;;;;21.20;66.95;101748.53;10568131;27;20062;-76
2022/05/19 17:24:23;;;;;;;9.57;5.95;;;;;;;21.09;66.01;101748.34;10548391;27;20039;-76
2022/05/19 17:29:23;;;;;;;8.55;5.05;;;;;;;20.63;67.86;101740.34;10549059;27;20115;-76
2022/05/19 17:34:24;;;;;;;8.32;6.90;;;;;;;20.25;69.59;101738.69;10568326;27;20089;-75
2022/05/19 17:39:26;;;;;;;6.00;4.93;;;;;;;19.88;72.44;101734.28;10548987;27;20114;-75
2022/05/19 17:44:26;;;;;;;7.38;6.32;;;;;;;19.54;74.13;101755.63;10568089;27;20391;-75
2022/05/19 17:49:27;;;;;;;11.15;5.90;;;;;;;19.47;75.96;101761.63;10564494;27;20066;-75
2022/05/19 17:54:28;;;;;;;7.22;6.35;;;;;;;19.36;76.25;101764.91;10565738;27;20028;-75
2022/05/19 17:59:29;;;;;;;6.80;5.82;;;;;;;19.12;78.72;101773.16;10548728;27;20036;-75
2022/05/19 18:04:30;;;;;;;6.05;5.20;;;;;;;18.99;78.79;101793.13;10548665;27;20035;-75
2022/05/19 18:09:31;;;;;;;11.75;9.43;;;;;;;19.23;76.52;101802.59;10567982;27;20040;-77
2022/05/19 18:19:51;;;;;;;13.73;9.85;;;;;;;18.73;74.78;101810.94;10568052;27;20040;-75
2022/05/19 18:24:53;;;;;;;11.70;7.95;;;;;;;18.39;76.60;101823.19;10545564;27;20142;-76
2022/05/19 18:29:54;;;;;;;;;;;;;;;18.12;77.71;101827.66;10565433;27;20032;-75
2022/05/19 18:34:55;;;;;;;13.38;9.38;;;;;;;17.90;78.58;101826.91;10566896;27;19923;-75
2022/05/19 18:39:55;;;;;;;16.10;10.82;;;;;;;17.72;79.87;101828.97;10564055;27;20031;-75
2022/05/19 18:44:57;;;;;;;12.27;10.80;;;;;;;17.52;80.92;101829.19;10566176;27;20489;-76
2022/05/19 18:49:57;;;;;;;17.25;11.40;;;;;;;17.28;82.65;101843.34;10572470;27;20039;-76
2022/05/19 18:55:00;;;;;;;14.68;11.50;;;;;;;17.12;84.07;101844.56;10508509;27;20036;-75
2022/05/19 19:00:01;;;;;;;17.25;12.00;;;;;;;17.12;84.29;101847.22;10511451;27;20089;-75
2022/05/19 19:05:02;;;;;;;17.50;10.70;;;;;;;17.11;83.68;101856.00;10534728;27;20063;-74
2022/05/19 19:10:04;;;;;;;13.38;11.65;;;;;;;16.95;83.82;101862.41;10532778;27;20036;-74
2022/05/19 19:15:05;;;;;;;13.40;11.98;;;;;;;16.79;84.56;101873.25;10528544;27;20131;-75
2022/05/19 19:20:06;;;;;;;13.50;10.95;;;;;;;16.56;84.63;101879.47;10526660;27;20555;-75
2022/05/19 19:25:07;;;;;;;15.33;12.40;;;;;;;16.34;85.52;101882.97;10510921;27;20192;-75
2022/05/19 19:30:09;;;;;;;17.77;13.10;;;;;;;16.10;86.12;101877.63;10528645;27;20042;-76
2022/05/19 19:35:09;;;;;;;16.93;13.83;;;;;;;15.94;87.55;101898.09;10524557;27;20042;-75
2022/05/19 19:40:13;;;;;;;17.45;14.57;;;;;;;15.73;87.71;101887.47;10560739;27;20069;-76
2022/05/19 19:45:15;;;;;;;20.70;16.33;;;;;;;15.57;89.25;101892.09;10528054;27;20387;-75
2022/05/19 19:55:35;;;;;;;20.90;16.48;;;;;;;15.24;90.75;101915.25;10527178;27;20498;-76
2022/05/19 20:00:35;;;;;;;21.50;16.35;;;;;;;15.09;91.39;101911.09;10547497;27;20101;-75
2022/05/19 20:05:36;;;;;;;27.77;19.45;;;;;;;14.98;92.85;101920.25;10527086;27;20059;-75
2022/05/19 20:10:37;;;;;;;22.63;18.63;;;;;;;14.89;93.04;101933.00;10526066;27;20170;-76
2022/05/19 20:15:38;;;;;;;26.67;19.85;;;;;;;14.75;93.89;101929.69;10510798;27;20549;-75
2022/05/19 20:20:38;;;;;;;29.17;21.08;;;;;;;14.61;94.02;101921.09;10524644;27;20036;-76
2022/05/19 20:25:39;;;;;;;30.60;23.77;;;;;;;14.61;95.15;101926.38;10539630;27;20115;-75
2022/05/19 20:30:42;;;;;;;37.88;25.80;;;;;;;14.50;95.04;101929.41;10508869;27;20038;-76
2022/05/19 20:35:42;;;;;;;35.70;28.40;;;;;;;14.48;95.52;101938.03;10532444;27;20068;-77
2022/05/19 20:40:43;;;;;;;40.97;27.13;;;;;;;14.41;95.04;101946.47;10508752;27;20111;-76
2022/05/19 20:45:44;;;;;;;36.47;26.90;;;;;;;14.33;95.15;101948.75;10504443;27;20491;-75
2022/05/19 20:50:46;;;;;;;36.33;26.17;;;;;;;14.29;95.26;101960.84;10527587;27;20051;-75
2022/05/19 20:55:47;;;;;;;40.08;27.55;;;;;;;14.23;95.13;101957.88;10522948;27;20480;-77
2022/05/19 21:00:47;;;;;;;33.67;26.80;;;;;;;14.11;94.90;101952.94;10490984;28;20037;-76
2022/05/19 21:05:49;;;;;;;36.63;25.65;;;;;;;14.03;94.81;101943.75;10507767;27;20040;-76
2022/05/19 21:10:51;;;;;;;35.20;25.13;;;;;;;13.90;94.41;101955.34;10524581;27;20127;-77
2022/05/19 21:15:51;;;;;;;35.10;26.95;;;;;;;13.82;94.16;101954.97;10540608;27;20497;-76
2022/05/19 21:20:53;;;;;;;32.17;24.13;;;;;;;13.67;94.24;101962.97;10532818;27;20127;-77
2022/05/19 21:25:54;;;;;;;34.67;24.85;;;;;;;13.52;94.22;101955.19;10521150;27;20119;-77
2022/05/19 21:30:55;;;;;;;37.30;25.80;;;;;;;13.45;94.93;101968.81;10521939;27;20054;-76
2022/05/19 21:35:56;;;;;;;37.40;27.10;;;;;;;13.34;95.04;101968.19;10520919;27;20044;-77
2022/05/19 21:40:58;;;;;;;40.50;29.00;;;;;;;13.19;95.31;101977.06;10531060;27;20050;-77
2022/05/19 21:46:00;;;;;;;37.22;28.63;;;;;;;13.12;95.88;101988.06;10527079;27;20107;-77
2022/05/19 21:56:22;;;;;;;44.65;28.33;;;;;;;12.90;96.31;102002.63;10482865;27;20059;-77
2022/05/19 22:01:23;;;;;;;43.83;28.73;;;;;;;12.83;96.28;102003.09;10521270;27;20044;-77
2022/05/19 22:17:11;;;;;;;39.88;27.35;;;;;;;12.54;96.72;102010.22;10522571;27;20519;-76
2022/05/19 22:22:12;;;;;;;40.15;31.63;;;;;;;12.43;96.89;102006.97;10563060;27;20475;-75
2022/05/19 22:27:12;;;;;;;45.35;30.98;;;;;;;12.39;97.75;102006.69;10513252;27;20036;-75
2022/05/19 22:32:14;;;;;;;45.72;29.85;;;;;;;12.23;97.46;102007.53;10522335;28;20062;-75
2022/05/19 22:37:15;;;;;;;61.55;34.65;;;;;;;12.16;97.79;101996.69;10496804;27;20123;-74
2022/05/19 22:42:15;;;;;;;52.10;35.17;;;;;;;12.09;98.79;101990.94;10512335;27;20025;-74
2022/05/19 22:52:35;;;;;;;50.22;34.83;;;;;;;11.71;98.54;101993.94;10530997;27;20032;-74
2022/05/19 22:57:35;;;;;;;45.83;33.33;;;;;;;11.57;98.78;102001.00;10512061;27;20036;-74
2022/05/19 23:02:36;;;;;;;56.13;36.33;;;;;;;11.57;99.48;102005.31;10531083;27;20036;-74
2022/05/19 23:07:36;;;;;;;59.10;36.70;;;;;;;11.45;99.83;102016.84;10528760;27;20071;-74
2022/05/19 23:12:37;;;;;;;61.10;41.35;;;;;;;11.40;100.00;102010.41;10531361;27;20142;-74
2022/05/19 23:17:38;;;;;;;59.90;39.72;;;;;;;11.24;100.00;102024.28;10509944;27;20438;-75
2022/05/19 23:22:38;;;;;;;69.32;44.75;;;;;;;11.18;100.00;102031.75;10529217;27;20044;-74
2022/05/19 23:27:40;;;;;;;59.00;41.67;;;;;;;11.08;100.00;102034.59;10530305;27;20119;-75
2022/05/19 23:38:05;;;;;;;60.92;41.25;;;;;;;10.93;100.00;102018.78;10528132;27;20040;-75
2022/05/19 23:43:06;;;;;;;68.97;35.83;;;;;;;10.79;100.00;102020.50;10546739;27;20047;-74
2022/05/19 23:48:07;;;;;;;72.45;44.35;;;;;;;10.69;100.00;102016.38;10524350;27;20575;-74
2022/05/19 23:53:07;;;;;;;79.82;48.15;;;;;;;10.65;100.00;102022.22;10530196;27;20044;-74
2022/05/19 23:58:08;;;;;;;72.72;46.85;;;;;;;10.59;100.00;102022.72;10524373;27;20471;-75
